ADDS METAR Data INFO
IDs: Format: Raw Decoded Include TAF

Data at: 2233 UTC 22 Aug 2017

KF17 222215Z AUTO 06003KT 10SM CLR 35/22 A3001 RMK AO2 T03520219
KF17 222155Z AUTO 00000KT 10SM CLR 35/21 A3001 RMK AO2 T03480214
KF17 222135Z AUTO 00000KT 10SM CLR 35/23 A3001 RMK AO2 T03500229
KF17 222115Z AUTO 00000KT 10SM SCT047 35/23 A3002 RMK AO2 T03500227
KF17 222055Z AUTO 00000KT 10SM SCT047 35/23 A3003 RMK AO2 T03510231
KF17 222035Z AUTO 00000KT 10SM CLR 35/22 A3004 RMK AO2 T03470222
KF17 222015Z AUTO 00000KT 1 1/4SM HZ VV007 35/23 A3004 RMK AO2 VIS 1/4V5 T03460227
KF17 221955Z AUTO 00000KT 7SM SCT043 35/23 A3005 RMK AO2 T03460232
KF17 221935Z AUTO 13003KT 10SM SCT043 34/24 A3006 RMK AO2 T03420235
KF17 221915Z AUTO 00000KT 10SM SCT042 35/23 A3007 RMK AO2 T03450228
KF17 221855Z AUTO 00000KT 7SM SCT040 34/23 A3007 RMK AO2 T03400230
KF17 221835Z AUTO 00000KT 10SM CLR 34/24 A3007 RMK AO2 T03420243
KF17 221815Z AUTO 10SM SCT038 33/23 A3008 RMK AO2 T03340229
KF17 221755Z AUTO 3SM HZ BKN038 33/24 A3009 RMK AO2 T03340236 10335 20242
KF17 221735Z AUTO 3SM HZ SCT036 33/23 A3009 RMK AO2 T03300233
KF17 221715Z AUTO 00000KT 10SM SCT034 33/24 A3010 RMK AO2 T03330240
KF17 221655Z AUTO 10SM BKN030 33/24 A3010 RMK AO2 T03270242
KF17 221635Z AUTO 10SM SCT028 32/25 A3010 RMK AO2 T03200247
KF17 221615Z AUTO 10SM SCT028 31/24 A3011 RMK AO2 T03120241
KF17 221555Z AUTO 00000KT 10SM SCT024 SCT030 31/25 A3011 RMK AO2 T03080245
KF17 221535Z AUTO 00000KT 7SM SCT019 31/25 A3011 RMK AO2 T03090254
KF17 221515Z AUTO 00000KT 3SM HZ SCT017 31/26 A3011 RMK AO2 T03070255
KF17 221455Z AUTO 10SM CLR 30/26 A3011 RMK AO2 T03030257
KF17 221435Z AUTO 10SM CLR 30/26 A3010 RMK AO2 T03000260
KF17 221415Z AUTO 10SM CLR 29/26 A3010 RMK AO2 T02910258
KF17 221355Z AUTO 10SM CLR 29/26 A3009 RMK AO2 T02860260
KF17 221335Z AUTO 10SM CLR 27/26 A3009 RMK AO2 T02730260
KF17 221315Z AUTO 3SM BR CLR 26/26 A3009 RMK AO2 T02630255
KF17 221255Z AUTO 10SM CLR 26/25 A3008 RMK AO2 T02550247
KF17 221235Z AUTO 7SM CLR 25/24 A3007 RMK AO2 T02500242
KF17 221215Z AUTO 00000KT 10SM CLR 25/24 A3007 RMK AO2 T02450236
KF17 221155Z AUTO 00000KT 7SM CLR 24/23 A3006 RMK AO2 T02420234 10263 20241
KF17 221135Z AUTO 00000KT 10SM CLR 24/24 A3006 RMK AO2 T02430235
KF17 221115Z AUTO 00000KT 7SM CLR 24/24 A3006 RMK AO2 T02430235
KF17 221055Z AUTO 00000KT 10SM CLR 24/24 A3005 RMK AO2 T02430235
KF17 221035Z AUTO 00000KT 4SM BR CLR 25/24 A3005 RMK AO2 T02460239
KF17 221015Z AUTO 00000KT 10SM CLR 25/24 A3005 RMK AO2 T02460238
KF17 220955Z AUTO 00000KT 7SM CLR 25/24 A3005 RMK AO2 T02460239
KF17 220935Z AUTO 00000KT 10SM CLR 25/24 A3006 RMK AO2 T02480240
KF17 220915Z AUTO 00000KT 10SM CLR 25/24 A3006 RMK AO2 T02490241
KF17 220855Z AUTO 00000KT 10SM CLR 25/24 A3006 RMK AO2 T02500242
KF17 220835Z AUTO 00000KT 10SM CLR 25/24 A3006 RMK AO2 T02510243
KF17 220815Z AUTO 00000KT 10SM CLR 25/25 A3006 RMK AO2 T02520245
KF17 220755Z AUTO 00000KT 10SM CLR 25/25 A3007 RMK AO2 T02540246
KF17 220735Z AUTO 00000KT 10SM CLR 26/25 A3007 RMK AO2 T02550247
KF17 220715Z AUTO 00000KT 10SM CLR 26/25 A3007 RMK AO2 T02550247
KF17 220655Z AUTO 00000KT 10SM CLR 26/25 A3007 RMK AO2 T02580250
KF17 220635Z AUTO 00000KT 10SM CLR 26/25 A3007 RMK AO2 T02600251
KF17 220615Z AUTO 00000KT 10SM CLR 26/25 A3008 RMK AO2 T02590251
KF17 220555Z AUTO 00000KT 10SM CLR 26/25 A3008 RMK AO2 T02600252 10331 20260 403460250
KF17 220535Z AUTO 00000KT 10SM CLR 27/26 A3009 RMK AO2 T02650256
KF17 220515Z AUTO 00000KT 5SM BR CLR 27/26 A3010 RMK AO2 T02670260
KF17 220455Z AUTO 00000KT 10SM CLR 27/26 A3010 RMK AO2 T02660258
KF17 220435Z AUTO 00000KT 10SM CLR 27/26 A3010 RMK AO2 T02660258
KF17 220415Z AUTO 00000KT 10SM CLR 27/26 A3011 RMK AO2 T02660258
KF17 220355Z AUTO 00000KT 10SM CLR 27/26 A3011 RMK AO2 T02700261
KF17 220335Z AUTO 00000KT 10SM CLR 27/26 A3011 RMK AO2 T02710263
KF17 220315Z AUTO 00000KT 10SM CLR 27/26 A3011 RMK AO2 T02720264
KF17 220255Z AUTO 00000KT 10SM CLR 27/26 A3010 RMK AO2 T02720263
KF17 220235Z AUTO 00000KT 7SM CLR 28/27 A3010 RMK AO2 T02760266
KF17 220215Z AUTO 00000KT 7SM CLR 28/27 A3009 RMK AO2 T02770266
KF17 220155Z AUTO 00000KT 10SM CLR 28/26 A3009 RMK AO2 T02800261
KF17 220135Z AUTO 00000KT 10SM CLR 29/27 A3008 RMK AO2 T02850265
KF17 220115Z AUTO 00000KT 10SM CLR 30/26 A3008 RMK AO2 T02960262
KF17 220055Z AUTO 09003KT 7SM CLR 31/25 A3007 RMK AO2 T03060254
KF17 220035Z AUTO 10003KT 10SM CLR 32/26 A3006 RMK AO2 T03150256
KF17 220015Z AUTO 10SM CLR 33/25 A3006 RMK AO2 T03250245
KF17 212355Z AUTO 3SM HZ CLR 33/24 A3006 RMK AO2 T03320235 10346 20321
KF17 212335Z AUTO 13003KT 10SM CLR 34/23 A3006 RMK AO2 T03350234
KF17 212315Z AUTO 11004KT 7SM CLR 34/23 A3006 RMK AO2 T03400227
KF17 212255Z AUTO 13003KT 10SM CLR 34/23 A3006 RMK AO2 T03400231
KF17 212235Z AUTO 09004KT 10SM CLR 34/23 A3006 RMK AO2 T03410229
KF17 212215Z AUTO 10004KT 3SM HZ CLR 35/23 A3006 RMK AO2 T03450229
KF17 212155Z AUTO 15005KT 10SM CLR 34/22 A3007 RMK AO2 T03440219
KF17 212135Z AUTO 14004KT 10SM CLR 35/22 A3007 RMK AO2 T03450219
KF17 212115Z AUTO 13005KT 2SM HZ CLR 34/22 A3008 RMK AO2 VIS 1/2V5 T03420218
KF17 212055Z AUTO 11006KT 10SM CLR 34/23 A3008 RMK AO2 T03430227
KF17 212035Z AUTO 00000KT 3SM HZ CLR 34/23 A3009 RMK AO2 T03400226
KF17 212015Z AUTO 08004KT 10SM CLR 34/24 A3009 RMK AO2 T03420240
KF17 211955Z AUTO 00000KT 3SM HZ CLR 34/24 A3010 RMK AO2 T03380235
KF17 211935Z AUTO 12005KT 10SM SCT038 34/23 A3010 RMK AO2 T03350234
KF17 211915Z AUTO 12006KT 10SM SCT038 33/24 A3011 RMK AO2 T03300239
KF17 211855Z AUTO 11005KT 10SM SCT038 33/26 A3011 RMK AO2 T03260257
KF17 211835Z AUTO 13003KT 10SM CLR 32/25 A3011 RMK AO2 T03220249
KF17 211815Z AUTO 13003KT 10SM CLR 32/24 A3011 RMK AO2 T03240237
KF17 211755Z AUTO 13003KT 10SM SCT039 33/24 A3012 RMK AO2 T03290238 10337 20250
KF17 211735Z AUTO 15004KT 10SM SCT043 33/24 A3012 RMK AO2 T03330236
KF17 211715Z AUTO 12003KT 10SM SCT034 SCT043 SCT050 34/24 A3013 RMK AO2 T03360243
KF17 211655Z AUTO 14003KT 10SM SCT034 SCT043 34/25 A3013 RMK AO2 T03360247
KF17 211635Z AUTO 16004KT 3SM HZ SCT030 33/25 A3013 RMK AO2 T03310250
KF17 211615Z AUTO 00000KT 10SM SCT030 32/25 A3013 RMK AO2 T03240252
KF17 211555Z AUTO 3SM HZ SCT020 33/26 A3013 RMK AO2 T03250260
KF17 211535Z AUTO 10SM SCT020 32/26 A3013 RMK AO2 T03180259
KF17 211515Z AUTO 10SM CLR 32/27 A3013 RMK AO2 T03190267
KF17 211455Z AUTO 10SM CLR 31/27 A3013 RMK AO2 T03090267
KF17 211435Z AUTO 1 3/4SM HZ VV007 30/27 A3012 RMK AO2 VIS 1/4V5 T03030267
KF17 211415Z AUTO 00000KT 10SM CLR 29/27 A3012 RMK AO2 T02930267
KF17 211355Z AUTO 00000KT 3SM BR CLR 29/26 A3011 RMK AO2 T02860264
KF17 211335Z AUTO 00000KT 10SM CLR 28/26 A3011 RMK AO2 T02780261
KF17 211315Z AUTO 00000KT 3SM BR CLR 27/26 A3011 RMK AO2 T02700257
KF17 211255Z AUTO 00000KT 10SM CLR 27/26 A3010 RMK AO2 T02650256
KF17 211235Z AUTO 00000KT 10SM CLR 26/25 A3010 RMK AO2 T02560249
KF17 211215Z AUTO 00000KT 10SM CLR 25/25 A3010 RMK AO2 T02530245
KF17 211155Z AUTO 00000KT 10SM CLR 25/24 A3010 RMK AO2 T02510244 10264 20251
KF17 211135Z AUTO 00000KT 10SM CLR 25/24 A3010 RMK AO2 T02510244
KF17 211115Z AUTO 00000KT 10SM CLR 25/25 A3010 RMK AO2 T02520245
KF17 211055Z AUTO 00000KT 10SM CLR 25/25 A3010 RMK AO2 T02520245
KF17 211035Z AUTO 00000KT 10SM CLR 25/25 A3010 RMK AO2 T02530245